Time;durP1;ratioP1;P1;durP2;ratioP2;P2;SDS_P1;SDS_P2;PMS_P1;PMS_P2;Temp;Humidity;BMP_temperature;BMP_pressure;BME280_temperature;BME280_humidity;BME280_pressure;Samples;Min_cycle;Max_cycle;Signal;HPM_P1;HPM_P2
2022/08/29 00:01:43;;;;;;;7.50;5.50;;;17.60;99.90;;;;;;5031893;28;20226;-58
2022/08/29 00:04:10;;;;;;;7.25;5.15;;;17.60;99.90;;;;;;5031774;28;20228;-58
2022/08/29 00:06:37;;;;;;;6.60;5.40;;;17.60;99.90;;;;;;5031938;28;20310;-58
2022/08/29 00:09:04;;;;;;;7.43;5.53;;;17.60;99.90;;;;;;5032038;28;20260;-58
2022/08/29 00:11:31;;;;;;;6.43;5.30;;;17.50;99.90;;;;;;5031349;28;20242;-58
2022/08/29 00:13:59;;;;;;;8.52;5.15;;;17.50;99.90;;;;;;5031882;28;20210;-58
2022/08/29 00:16:26;;;;;;;8.07;5.75;;;17.50;99.90;;;;;;5031612;28;20350;-57
2022/08/29 00:18:53;;;;;;;5.70;5.10;;;17.40;99.90;;;;;;5031987;28;20222;-57
2022/08/29 00:21:20;;;;;;;6.90;5.03;;;17.40;99.90;;;;;;5035242;28;20229;-58
2022/08/29 00:23:47;;;;;;;7.07;6.15;;;17.30;99.90;;;;;;5035968;28;20206;-58
2022/08/29 00:26:14;;;;;;;5.82;5.15;;;17.20;99.90;;;;;;5035817;28;20211;-58
2022/08/29 00:28:41;;;;;;;10.82;6.03;;;17.10;99.90;;;;;;5035501;28;20296;-58
2022/08/29 00:31:09;;;;;;;5.75;5.22;;;17.10;99.90;;;;;;5035223;28;20222;-58
2022/08/29 00:33:37;;;;;;;9.38;5.55;;;17.20;99.90;;;;;;5035342;28;20225;-58
2022/08/29 00:36:04;;;;;;;5.70;5.20;;;17.20;99.90;;;;;;5035694;28;20245;-58
2022/08/29 00:38:31;;;;;;;7.60;5.47;;;17.20;99.90;;;;;;5036403;28;20256;-58
2022/08/29 00:40:58;;;;;;;5.63;5.13;;;17.20;99.90;;;;;;5035867;28;20210;-57
2022/08/29 00:43:28;;;;;;;7.68;5.53;;;17.20;99.90;;;;;;5035706;28;20214;-58
2022/08/29 00:46:04;;;;;;;7.68;5.25;;;17.20;99.90;;;;;;5035935;28;20206;-58
2022/08/29 00:48:36;;;;;;;7.45;6.20;;;17.30;99.90;;;;;;5036143;28;20206;-58
2022/08/29 00:51:05;;;;;;;7.55;5.70;;;17.20;99.90;;;;;;5035145;28;20214;-58
2022/08/29 00:53:38;;;;;;;6.68;5.45;;;17.30;99.90;;;;;;5035561;28;20202;-58
2022/08/29 00:56:08;;;;;;;7.50;5.73;;;17.30;99.90;;;;;;5035401;28;20253;-58
2022/08/29 00:58:42;;;;;;;6.78;5.70;;;17.20;99.90;;;;;;5035198;28;20257;-58
2022/08/29 01:01:10;;;;;;;9.32;5.55;;;17.20;99.90;;;;;;5035280;28;20229;-58
2022/08/29 01:03:40;;;;;;;6.78;5.45;;;17.20;99.90;;;;;;5035341;28;20671;-57
2022/08/29 01:06:07;;;;;;;6.95;5.20;;;17.20;99.90;;;;;;5035257;28;20258;-57
2022/08/29 01:08:35;;;;;;;11.27;5.80;;;17.20;99.90;;;;;;5035096;28;20207;-58
2022/08/29 01:13:49;;;;;;;6.05;5.45;;;17.10;99.90;;;;;;5034673;28;20287;-57
2022/08/29 01:16:18;;;;;;;8.40;5.72;;;17.10;99.90;;;;;;5034600;28;20591;-57
2022/08/29 01:18:51;;;;;;;6.72;5.63;;;17.00;99.90;;;;;;5034494;28;20691;-57
2022/08/29 01:21:24;;;;;;;8.55;5.20;;;17.00;99.90;;;;;;5034638;28;20305;-57
2022/08/29 01:23:59;;;;;;;7.43;5.20;;;17.00;99.90;;;;;;5034390;28;20210;-57
2022/08/29 01:26:28;;;;;;;8.15;5.13;;;16.90;99.90;;;;;;5034203;28;20217;-57
2022/08/29 01:28:57;;;;;;;6.45;5.53;;;16.90;99.90;;;;;;5034000;28;20218;-58
2022/08/29 01:31:25;;;;;;;7.45;6.10;;;16.90;99.90;;;;;;5033303;28;20268;-57
2022/08/29 01:33:55;;;;;;;6.88;5.03;;;17.00;99.90;;;;;;5034146;28;20202;-58
2022/08/29 01:36:25;;;;;;;6.07;5.47;;;17.00;99.90;;;;;;5033989;28;20206;-58
2022/08/29 01:38:53;;;;;;;8.90;5.40;;;17.00;99.90;;;;;;5033866;28;20256;-58
2022/08/29 01:41:21;;;;;;;6.40;5.13;;;17.00;99.90;;;;;;5033670;28;20237;-58
2022/08/29 01:43:53;;;;;;;8.73;6.13;;;17.00;99.90;;;;;;5033863;28;20641;-57
2022/08/29 01:46:28;;;;;;;7.13;5.70;;;17.00;99.90;;;;;;5033867;28;20243;-58
2022/08/29 01:48:56;;;;;;;6.43;5.38;;;17.00;99.90;;;;;;5033726;28;20208;-57
2022/08/29 01:51:24;;;;;;;8.32;5.43;;;17.00;99.90;;;;;;5033368;28;20595;-59
2022/08/29 01:53:51;;;;;;;7.15;5.55;;;16.90;99.90;;;;;;5033685;28;20311;-57
2022/08/29 01:56:22;;;;;;;7.00;5.90;;;16.90;99.90;;;;;;5033276;28;20695;-58
2022/08/29 01:58:51;;;;;;;6.30;5.25;;;16.90;99.90;;;;;;5033866;28;20230;-58
2022/08/29 02:01:20;;;;;;;5.82;5.20;;;16.90;99.90;;;;;;5033177;28;20322;-58
2022/08/29 02:03:47;;;;;;;6.40;5.68;;;16.90;99.90;;;;;;5033368;28;20210;-58
2022/08/29 02:06:14;;;;;;;6.60;5.70;;;16.90;99.90;;;;;;5033406;28;20225;-58
2022/08/29 02:08:43;;;;;;;7.43;5.30;;;16.90;99.90;;;;;;5032991;28;20229;-58
2022/08/29 02:11:16;;;;;;;7.15;5.60;;;16.90;99.90;;;;;;5032573;28;20226;-58
2022/08/29 02:13:45;;;;;;;7.32;5.45;;;16.90;99.90;;;;;;5033294;28;20206;-58
2022/08/29 02:16:14;;;;;;;9.45;6.00;;;16.90;99.90;;;;;;5033168;28;20206;-57
2022/08/29 02:18:41;;;;;;;6.50;5.90;;;16.90;99.90;;;;;;5032930;28;20202;-57
2022/08/29 02:21:09;;;;;;;11.15;7.45;;;16.90;99.90;;;;;;5032592;28;20226;-59
2022/08/29 02:23:37;;;;;;;7.32;5.43;;;16.90;99.90;;;;;;5032958;28;20209;-57
2022/08/29 02:26:04;;;;;;;10.20;5.82;;;16.90;99.90;;;;;;5032852;28;20593;-57
2022/08/29 02:28:32;;;;;;;7.43;5.22;;;16.90;99.90;;;;;;5032952;28;20210;-57
2022/08/29 02:30:59;;;;;;;7.57;5.53;;;16.90;99.90;;;;;;5032535;28;20206;-57
2022/08/29 02:33:27;;;;;;;7.47;5.72;;;16.90;99.90;;;;;;5032816;28;20230;-58
2022/08/29 02:35:54;;;;;;;10.73;6.53;;;16.80;99.90;;;;;;5032822;28;20218;-57
2022/08/29 02:38:22;;;;;;;10.63;7.10;;;16.80;99.90;;;;;;5033287;28;20202;-57
2022/08/29 02:40:49;;;;;;;8.35;5.18;;;16.80;99.90;;;;;;5032611;28;20293;-58
2022/08/29 02:43:18;;;;;;;8.18;5.60;;;16.80;99.90;;;;;;5031868;28;20543;-58
2022/08/29 02:45:46;;;;;;;38.58;28.42;;;16.80;99.90;;;;;;5032913;28;20600;-58
2022/08/29 02:48:13;;;;;;;14.27;9.60;;;16.80;99.90;;;;;;5032578;28;20202;-58
2022/08/29 02:50:44;;;;;;;7.13;5.97;;;16.80;99.90;;;;;;5032234;28;20590;-59
2022/08/29 02:53:12;;;;;;;7.00;5.38;;;16.70;99.90;;;;;;5032544;28;20240;-58
2022/08/29 02:55:39;;;;;;;8.10;5.70;;;16.60;99.90;;;;;;5032434;28;20761;-58
2022/08/29 02:58:07;;;;;;;6.05;5.45;;;16.60;99.90;;;;;;5032370;28;20293;-58
2022/08/29 03:00:35;;;;;;;9.02;5.90;;;16.60;99.90;;;;;;5032113;28;20664;-58
2022/08/29 03:03:03;;;;;;;9.65;5.80;;;16.50;99.90;;;;;;5032080;28;20253;-57
2022/08/29 03:05:33;;;;;;;7.00;5.90;;;16.40;99.90;;;;;;5032429;28;20210;-57
2022/08/29 03:08:04;;;;;;;6.38;5.78;;;16.40;99.90;;;;;;5032525;28;20210;-58
2022/08/29 03:10:31;;;;;;;9.03;6.27;;;16.30;99.90;;;;;;5032312;28;20263;-57
2022/08/29 03:12:58;;;;;;;8.98;5.82;;;16.30;99.90;;;;;;5032000;28;20236;-57
2022/08/29 03:15:25;;;;;;;7.57;5.80;;;16.20;99.90;;;;;;5032275;28;20212;-58
2022/08/29 03:17:53;;;;;;;7.38;5.70;;;16.10;99.90;;;;;;5032371;28;20301;-57
2022/08/29 03:20:21;;;;;;;6.97;5.38;;;16.10;99.90;;;;;;5032218;28;20313;-58
2022/08/29 03:22:48;;;;;;;6.73;5.70;;;16.00;99.90;;;;;;5032155;28;20230;-59
2022/08/29 03:25:17;;;;;;;6.15;5.55;;;16.00;99.90;;;;;;5031974;28;20218;-58
2022/08/29 03:27:44;;;;;;;6.53;5.60;;;15.90;99.90;;;;;;5032127;28;20400;-58
2022/08/29 03:30:13;;;;;;;9.83;5.77;;;15.70;99.90;;;;;;5031874;28;20256;-57
2022/08/29 03:32:41;;;;;;;5.80;5.20;;;15.70;99.90;;;;;;5031935;28;20226;-58
2022/08/29 03:35:09;;;;;;;8.63;5.83;;;15.60;99.90;;;;;;5032373;28;20316;-58
2022/08/29 03:37:36;;;;;;;7.47;5.73;;;15.60;99.90;;;;;;5032496;28;20281;-58
2022/08/29 03:40:05;;;;;;;8.87;6.73;;;15.70;99.90;;;;;;5031931;28;20210;-57
2022/08/29 03:42:33;;;;;;;9.83;6.90;;;15.70;99.90;;;;;;5032069;28;20238;-57
2022/08/29 03:45:02;;;;;;;9.93;6.00;;;15.80;99.90;;;;;;5032228;28;20202;-57
2022/08/29 03:47:29;;;;;;;12.23;7.30;;;15.80;99.90;;;;;;5032129;28;20203;-57
2022/08/29 03:49:56;;;;;;;7.73;5.97;;;15.80;99.90;;;;;;5031780;28;20210;-57
2022/08/29 03:52:22;;;;;;;10.17;5.90;;;15.80;99.90;;;;;;5031809;28;20230;-57
2022/08/29 03:54:49;;;;;;;8.60;5.90;;;15.80;99.90;;;;;;5034564;28;20213;-57
2022/08/29 03:57:16;;;;;;;6.33;5.73;;;15.80;99.90;;;;;;5035497;28;20586;-58
2022/08/29 03:59:44;;;;;;;8.93;5.43;;;15.80;99.90;;;;;;5035600;28;20217;-57
2022/08/29 04:02:11;;;;;;;8.00;6.47;;;15.90;99.90;;;;;;5035470;28;20249;-58
2022/08/29 04:07:22;;;;;;;7.03;5.43;;;16.00;99.90;;;;;;5035650;28;20256;-57
2022/08/29 04:09:49;;;;;;;9.50;5.70;;;16.00;99.90;;;;;;5035283;28;20213;-57
2022/08/29 04:12:16;;;;;;;7.73;5.77;;;16.00;99.90;;;;;;5063475;22;20261;-58
2022/08/29 04:14:44;;;;;;;10.90;5.57;;;16.00;99.90;;;;;;5046442;28;20590;-57
2022/08/29 04:17:11;;;;;;;7.17;5.50;;;16.00;99.90;;;;;;5054849;28;20201;-57
2022/08/29 04:19:38;;;;;;;7.23;5.70;;;16.00;99.90;;;;;;5054585;28;20201;-58
2022/08/29 04:22:06;;;;;;;13.30;6.00;;;15.90;99.90;;;;;;5054642;28;20602;-57
2022/08/29 04:24:34;;;;;;;9.87;5.43;;;16.00;99.90;;;;;;5054686;28;20210;-57
2022/08/29 04:27:00;;;;;;;6.57;5.60;;;15.90;99.90;;;;;;5054684;28;20689;-58
2022/08/29 04:29:27;;;;;;;7.63;6.37;;;15.90;99.90;;;;;;5055135;28;20205;-57
2022/08/29 04:31:55;;;;;;;6.20;5.60;;;15.80;99.90;;;;;;5054191;28;20221;-57
2022/08/29 04:34:22;;;;;;;9.23;6.00;;;15.80;99.90;;;;;;5054388;28;20225;-58
2022/08/29 04:36:49;;;;;;;8.17;6.67;;;15.80;99.90;;;;;;5054378;28;20205;-56
2022/08/29 04:39:16;;;;;;;7.43;6.50;;;15.80;99.90;;;;;;5054612;28;20213;-57
2022/08/29 04:41:43;;;;;;;7.00;5.40;;;15.80;99.90;;;;;;5054285;28;20236;-56
2022/08/29 04:44:11;;;;;;;8.73;6.23;;;15.80;99.90;;;;;;5054569;28;20205;-56
2022/08/29 04:46:38;;;;;;;7.80;6.13;;;15.70;99.90;;;;;;5054309;28;20263;-57
2022/08/29 04:49:06;;;;;;;7.40;6.20;;;15.80;99.90;;;;;;5054786;28;20235;-57
2022/08/29 04:51:35;;;;;;;8.37;6.03;;;15.80;99.90;;;;;;5053878;28;20229;-57
2022/08/29 04:54:03;;;;;;;8.33;6.20;;;15.80;99.90;;;;;;5054174;28;20316;-56
2022/08/29 04:56:30;;;;;;;8.93;6.10;;;15.90;99.90;;;;;;5054389;28;20721;-56
2022/08/29 04:58:57;;;;;;;5.83;5.23;;;15.90;99.90;;;;;;5054087;28;20275;-57
2022/08/29 05:01:24;;;;;;;7.70;5.87;;;15.90;99.90;;;;;;5053823;28;20217;-56
2022/08/29 05:03:53;;;;;;;6.47;5.77;;;15.90;99.90;;;;;;5053952;28;20260;-56
2022/08/29 05:06:22;;;;;;;10.30;5.60;;;15.90;99.90;;;;;;5053788;28;20205;-57
2022/08/29 05:08:49;;;;;;;8.70;5.35;;;16.00;99.90;;;;;;5054087;28;20330;-57
2022/08/29 05:11:18;;;;;;;7.30;5.60;;;16.00;99.90;;;;;;5053778;28;20212;-58
2022/08/29 05:13:46;;;;;;;10.80;5.77;;;16.10;99.90;;;;;;5053728;28;20230;-58
2022/08/29 05:16:15;;;;;;;6.57;5.50;;;16.20;99.90;;;;;;5053730;28;20296;-58
2022/08/29 05:18:43;;;;;;;8.70;6.07;;;16.30;99.90;;;;;;5053735;28;20252;-58
2022/08/29 05:21:11;;;;;;;7.13;5.68;;;16.40;99.90;;;;;;5053768;28;20589;-58
2022/08/29 05:23:39;;;;;;;7.43;5.82;;;16.50;99.90;;;;;;5053741;28;20217;-58
2022/08/29 05:26:06;;;;;;;8.18;5.18;;;16.60;99.90;;;;;;5053350;28;20210;-58
2022/08/29 05:28:35;;;;;;;12.30;6.10;;;16.70;99.90;;;;;;5053623;28;20415;-58
2022/08/29 05:31:02;;;;;;;11.57;5.55;;;16.70;99.90;;;;;;5053131;28;20205;-59
2022/08/29 05:33:29;;;;;;;9.35;5.85;;;16.70;99.90;;;;;;5053438;28;20230;-57
2022/08/29 05:35:57;;;;;;;8.02;5.63;;;16.70;99.90;;;;;;5053485;28;20251;-58
2022/08/29 05:38:24;;;;;;;8.38;5.55;;;16.80;99.90;;;;;;5053533;28;20304;-58
2022/08/29 05:40:52;;;;;;;8.75;5.57;;;16.90;99.90;;;;;;5053045;28;20210;-57
2022/08/29 05:43:19;;;;;;;8.20;5.72;;;17.10;99.90;;;;;;5053279;28;20230;-58
2022/08/29 05:45:46;;;;;;;6.07;4.80;;;18.00;99.90;;;;;;5053455;28;20209;-58
2022/08/29 05:48:13;;;;;;;6.95;4.75;;;19.40;99.90;;;;;;5053543;28;20582;-58
2022/08/29 05:50:41;;;;;;;7.25;4.38;;;20.90;99.90;;;;;;5053234;28;20213;-59
2022/08/29 05:53:08;;;;;;;4.65;4.15;;;22.30;99.90;;;;;;5052941;28;20233;-59
2022/08/29 05:55:40;;;;;;;10.68;4.50;;;23.60;99.90;;;;;;5053092;28;20300;-58
2022/08/29 05:58:08;;;;;;;8.52;4.45;;;24.80;99.90;;;;;;5052852;28;20692;-56
2022/08/29 06:00:38;;;;;;;5.82;3.88;;;25.90;99.90;;;;;;5052617;28;20673;-57
2022/08/29 06:03:04;;;;;;;4.10;3.70;;;26.60;99.90;;;;;;5052970;28;20271;-58
2022/08/29 06:05:31;;;;;;;7.07;3.70;;;27.20;99.90;;;;;;5053014;28;20213;-57
2022/08/29 06:07:58;;;;;;;8.20;4.15;;;27.80;99.90;;;;;;5053035;28;20202;-56
2022/08/29 06:10:24;;;;;;;4.80;3.90;;;28.50;99.90;;;;;;5052711;28;20209;-57
2022/08/29 06:12:51;;;;;;;8.80;4.22;;;28.80;99.90;;;;;;5052897;28;20603;-57
2022/08/29 06:15:19;;;;;;;4.85;4.05;;;29.30;99.10;;;;;;5052680;28;20412;-58
2022/08/29 06:17:47;;;;;;;6.03;3.80;;;30.00;97.30;;;;;;5051992;28;20202;-58
2022/08/29 06:20:14;;;;;;;6.80;4.18;;;30.60;95.80;;;;;;5052183;28;20723;-57
2022/08/29 06:22:41;;;;;;;5.82;3.85;;;31.30;93.70;;;;;;5052479;28;20229;-58
2022/08/29 06:25:09;;;;;;;4.93;3.83;;;31.90;91.80;;;;;;5052431;28;20205;-57
2022/08/29 06:27:35;;;;;;;7.10;3.70;;;32.50;89.70;;;;;;5052761;28;20216;-57
2022/08/29 06:30:02;;;;;;;4.00;3.53;;;33.10;85.40;;;;;;5052511;28;20206;-57
2022/08/29 06:32:30;;;;;;;5.78;3.95;;;33.70;82.00;;;;;;5052549;28;20283;-57
2022/08/29 06:34:57;;;;;;;5.55;3.97;;;34.10;79.60;;;;;;5052359;28;20283;-56
2022/08/29 06:37:24;;;;;;;7.18;4.13;;;34.40;76.40;;;;;;5052576;28;20210;-57
2022/08/29 06:39:51;;;;;;;4.53;3.70;;;34.50;74.30;;;;;;5052659;28;20205;-60
2022/08/29 06:42:21;;;;;;;5.93;3.83;;;34.70;73.80;;;;;;5052656;28;20325;-56
2022/08/29 06:44:48;;;;;;;7.82;4.32;;;35.00;70.90;;;;;;5052594;28;20204;-57
2022/08/29 06:47:15;;;;;;;7.85;3.95;;;35.20;69.70;;;;;;5052781;28;20213;-58
2022/08/29 06:49:43;;;;;;;6.55;4.38;;;35.30;68.60;;;;;;5052299;28;20205;-58
2022/08/29 06:52:10;;;;;;;8.32;4.53;;;35.50;67.30;;;;;;5051901;28;20252;-58
2022/08/29 06:54:37;;;;;;;5.82;4.00;;;35.70;67.50;;;;;;5052382;28;20229;-57
2022/08/29 06:57:04;;;;;;;5.75;4.60;;;35.30;66.30;;;;;;5052194;28;20212;-58
2022/08/29 06:59:31;;;;;;;5.93;4.32;;;34.40;68.10;;;;;;5052376;28;20303;-58
2022/08/29 07:01:57;;;;;;;5.15;4.10;;;33.40;71.30;;;;;;5051556;28;20233;-58
2022/08/29 07:04:24;;;;;;;14.35;4.68;;;33.40;71.20;;;;;;5051844;28;20202;-57
2022/08/29 07:06:52;;;;;;;6.78;4.22;;;33.90;70.90;;;;;;5051759;28;20205;-57
2022/08/29 07:09:19;;;;;;;5.45;3.95;;;34.20;70.20;;;;;;5051876;28;20209;-56
2022/08/29 07:11:46;;;;;;;7.68;4.40;;;34.20;70.20;;;;;;5051651;28;20237;-59
2022/08/29 07:14:13;;;;;;;6.47;4.63;;;34.10;70.50;;;;;;5051911;28;20290;-58
2022/08/29 07:16:40;;;;;;;10.00;5.10;;;34.60;70.10;;;;;;5052345;28;20608;-57
2022/08/29 07:19:08;;;;;;;6.40;4.90;;;35.00;68.80;;;;;;5051691;28;20295;-56
2022/08/29 07:21:35;;;;;;;5.97;4.10;;;35.50;67.10;;;;;;5038124;28;20229;-57
2022/08/29 07:24:04;;;;;;;5.43;4.00;;;36.00;66.10;;;;;;5030696;28;20202;-56
2022/08/29 07:26:35;;;;;;;6.55;4.72;;;36.70;63.40;;;;;;5030722;28;20213;-56
2022/08/29 07:29:06;;;;;;;4.95;4.47;;;37.20;61.20;;;;;;5032322;28;20642;-56
2022/08/29 07:31:33;;;;;;;6.53;4.32;;;37.00;62.30;;;;;;5043827;28;20783;-57
2022/08/29 07:34:00;;;;;;;5.60;4.60;;;36.80;61.50;;;;;;5054419;28;20225;-57
2022/08/29 07:36:26;;;;;;;5.85;4.43;;;36.90;61.00;;;;;;5054567;28;20206;-57
2022/08/29 07:38:53;;;;;;;6.00;4.40;;;37.40;59.70;;;;;;5054779;28;20212;-57
2022/08/29 07:41:22;;;;;;;5.95;4.38;;;37.70;58.40;;;;;;5054247;28;20252;-56
2022/08/29 07:43:49;;;;;;;7.95;4.45;;;37.40;58.60;;;;;;5054572;28;20213;-56
2022/08/29 07:46:18;;;;;;;5.82;3.78;;;37.30;58.30;;;;;;5054347;28;20638;-56
2022/08/29 07:48:45;;;;;;;6.78;4.75;;;37.00;58.50;;;;;;5054662;28;20213;-57
2022/08/29 07:51:13;;;;;;;6.65;4.55;;;37.50;57.70;;;;;;5054340;28;20209;-59
2022/08/29 07:53:41;;;;;;;6.13;4.38;;;37.00;58.20;;;;;;5054069;28;20700;-60
2022/08/29 07:56:10;;;;;;;9.27;4.00;;;36.70;58.80;;;;;;5055033;28;20213;-55
2022/08/29 07:58:39;;;;;;;6.50;4.40;;;35.50;60.50;;;;;;5055348;28;20676;-56
2022/08/29 08:01:06;;;;;;;6.55;4.20;;;34.60;63.00;;;;;;5054913;28;20216;-56
2022/08/29 08:03:34;;;;;;;5.35;4.10;;;34.40;63.80;;;;;;5055609;28;20229;-56
2022/08/29 08:06:01;;;;;;;9.18;4.53;;;34.40;63.80;;;;;;5055596;28;20206;-60
2022/08/29 08:08:29;;;;;;;7.95;4.75;;;34.70;64.00;;;;;;5055849;28;20213;-57
2022/08/29 08:10:55;;;;;;;6.72;4.80;;;35.60;62.60;;;;;;5055244;28;20217;-57
2022/08/29 08:13:22;;;;;;;8.02;4.28;;;36.40;60.30;;;;;;5055320;28;20229;-57
2022/08/29 08:15:50;;;;;;;13.00;5.00;;;36.60;59.40;;;;;;5055389;28;20631;-57
2022/08/29 08:18:17;;;;;;;5.40;4.15;;;35.50;61.10;;;;;;5055302;28;20691;-57
2022/08/29 08:20:47;;;;;;;6.18;4.40;;;33.60;65.40;;;;;;5055082;28;20637;-55
2022/08/29 08:23:14;;;;;;;10.45;5.03;;;32.10;68.50;;;;;;5055223;28;20320;-57
2022/08/29 08:25:41;;;;;;;6.30;4.90;;;30.80;72.10;;;;;;5055338;28;20300;-55
2022/08/29 08:28:08;;;;;;;10.00;4.95;;;29.50;76.10;;;;;;5055171;28;20209;-56
2022/08/29 08:30:35;;;;;;;6.05;4.63;;;28.40;79.90;;;;;;5055063;28;20209;-55
2022/08/29 08:33:03;;;;;;;7.32;4.82;;;27.80;81.90;;;;;;5055374;28;20225;-55
2022/08/29 08:35:33;;;;;;;7.72;4.97;;;27.50;84.40;;;;;;5055011;28;20324;-56
2022/08/29 08:38:00;;;;;;;8.80;4.85;;;27.20;85.80;;;;;;5055000;28;20201;-55
2022/08/29 08:40:29;;;;;;;8.70;5.40;;;26.90;88.40;;;;;;5053718;28;20201;-55
2022/08/29 08:42:59;;;;;;;7.30;5.45;;;26.50;90.10;;;;;;5055031;28;20701;-55
2022/08/29 08:45:32;;;;;;;7.25;5.10;;;26.10;91.00;;;;;;5055070;28;20209;-55
2022/08/29 08:48:06;;;;;;;6.07;5.07;;;25.90;92.00;;;;;;5054878;28;20213;-56
2022/08/29 08:50:41;;;;;;;7.85;4.82;;;25.80;92.90;;;;;;5054716;28;20201;-56
2022/08/29 08:53:13;;;;;;;6.53;5.47;;;25.70;93.70;;;;;;5054368;28;20735;-56
2022/08/29 08:55:42;;;;;;;7.78;4.93;;;25.60;94.20;;;;;;5054318;28;20279;-55
2022/08/29 08:58:19;;;;;;;6.20;5.13;;;25.50;94.70;;;;;;5054091;28;20615;-55
2022/08/29 09:00:52;;;;;;;6.47;5.00;;;25.30;95.20;;;;;;5053851;28;20673;-55
2022/08/29 09:03:58;;;;;;;7.18;4.80;;;25.20;95.90;;;;;;5054192;28;20259;-55
2022/08/29 09:06:42;;;;;;;6.82;4.43;;;25.30;96.00;;;;;;5054042;28;20209;-55
2022/08/29 09:09:17;;;;;;;7.28;5.10;;;25.40;96.30;;;;;;5054102;28;20209;-56
2022/08/29 09:11:54;;;;;;;8.90;5.25;;;25.40;97.00;;;;;;5053454;28;20260;-55
2022/08/29 09:14:33;;;;;;;5.80;4.63;;;25.50;97.40;;;;;;5053877;28;20252;-56
2022/08/29 09:17:02;;;;;;;9.05;4.38;;;25.50;97.40;;;;;;5053808;28;20216;-56
2022/08/29 09:19:31;;;;;;;7.28;4.68;;;25.50;97.70;;;;;;5053762;28;20206;-57
2022/08/29 09:22:05;;;;;;;7.72;4.90;;;25.60;98.00;;;;;;5053617;28;20233;-54
2022/08/29 09:24:39;;;;;;;6.63;4.95;;;25.80;98.00;;;;;;5053479;28;20210;-56
2022/08/29 09:27:07;;;;;;;9.15;5.18;;;25.90;97.80;;;;;;5053605;28;20347;-55
2022/08/29 09:29:36;;;;;;;6.38;4.88;;;25.90;97.80;;;;;;5053965;28;20206;-55
2022/08/29 09:32:09;;;;;;;10.27;4.97;;;25.90;97.80;;;;;;5053535;28;20226;-56
2022/08/29 09:34:41;;;;;;;6.95;4.65;;;25.90;97.80;;;;;;5053109;28;20765;-56
2022/08/29 09:37:23;;;;;;;12.63;9.68;;;25.90;98.00;;;;;;5053777;28;20216;-56
2022/08/29 09:39:54;;;;;;;8.68;5.30;;;26.10;98.00;;;;;;5053413;28;20201;-55
2022/08/29 09:42:23;;;;;;;6.82;5.28;;;26.30;98.00;;;;;;5053284;28;20248;-55
2022/08/29 09:44:53;;;;;;;8.05;5.35;;;26.60;97.80;;;;;;5053305;28;20669;-55
2022/08/29 09:47:22;;;;;;;6.53;4.68;;;26.80;97.00;;;;;;5053371;28;20263;-56
2022/08/29 09:50:08;;;;;;;5.47;4.80;;;26.90;96.30;;;;;;5053253;28;20673;-55
2022/08/29 09:52:36;;;;;;;6.80;4.30;;;26.90;95.70;;;;;;5053185;28;20232;-55
2022/08/29 09:55:31;;;;;;;8.20;4.63;;;26.90;95.70;;;;;;5053041;28;20269;-55
2022/08/29 09:58:02;;;;;;;8.23;4.18;;;27.00;95.30;;;;;;5053530;28;20205;-55
2022/08/29 10:00:32;;;;;;;6.95;4.55;;;27.00;95.40;;;;;;5052840;28;20676;-54
2022/08/29 10:03:01;;;;;;;5.28;4.10;;;27.10;95.40;;;;;;5053078;28;20225;-56
2022/08/29 10:05:40;;;;;;;6.30;3.90;;;27.40;94.40;;;;;;5052897;28;20256;-54
2022/08/29 10:08:22;;;;;;;7.82;3.90;;;27.40;93.70;;;;;;5052702;28;20312;-54
2022/08/29 10:10:53;;;;;;;5.00;3.38;;;27.30;93.20;;;;;;5052822;28;20214;-55
2022/08/29 10:13:23;;;;;;;9.18;4.15;;;27.20;92.80;;;;;;5053063;28;20237;-55
2022/08/29 10:15:53;;;;;;;3.83;3.38;;;27.30;93.50;;;;;;5052826;28;20226;-54
2022/08/29 10:18:27;;;;;;;9.75;3.42;;;27.40;92.40;;;;;;5052582;28;20209;-57
2022/08/29 10:21:08;;;;;;;9.95;3.50;;;27.40;91.50;;;;;;5052141;28;20214;-55
2022/08/29 10:23:44;;;;;;;6.97;3.63;;;27.50;91.50;;;;;;5052595;28;20205;-57
2022/08/29 10:26:22;;;;;;;6.00;3.70;;;27.60;91.60;;;;;;5052518;28;20197;-55
2022/08/29 10:28:56;;;;;;;5.00;3.40;;;27.60;91.40;;;;;;5052438;28;20209;-54
2022/08/29 10:31:32;;;;;;;5.63;3.10;;;27.80;91.10;;;;;;5052357;28;20209;-56
2022/08/29 10:34:16;;;;;;;6.57;3.60;;;28.00;90.30;;;;;;5052437;28;20209;-56
2022/08/29 10:36:50;;;;;;;5.28;4.03;;;28.30;89.60;;;;;;5052484;28;20267;-55
2022/08/29 10:39:26;;;;;;;6.18;3.50;;;28.50;90.10;;;;;;5052198;28;20304;-55
2022/08/29 10:41:56;;;;;;;5.63;3.45;;;28.60;88.40;;;;;;5052184;28;20577;-55
2022/08/29 10:44:37;;;;;;;4.75;3.00;;;28.60;87.90;;;;;;5052258;28;20206;-55
2022/08/29 10:47:20;;;;;;;7.05;3.38;;;28.60;87.30;;;;;;5052085;28;20205;-54
2022/08/29 10:50:05;;;;;;;4.85;3.28;;;28.60;87.80;;;;;;5052029;28;20288;-55
2022/08/29 10:52:43;;;;;;;5.57;3.28;;;28.60;86.60;;;;;;5051745;28;20275;-55
2022/08/29 10:55:18;;;;;;;5.82;3.35;;;28.60;86.70;;;;;;5051781;28;20252;-55
2022/08/29 10:57:56;;;;;;;5.65;3.10;;;28.50;86.80;;;;;;5052267;28;20213;-56
2022/08/29 11:00:31;;;;;;;5.15;3.15;;;28.80;85.20;;;;;;5051785;28;20209;-55
2022/08/29 11:03:05;;;;;;;5.15;3.45;;;28.80;84.10;;;;;;5052011;28;20225;-56
2022/08/29 11:05:40;;;;;;;5.18;3.10;;;28.90;83.30;;;;;;5052026;28;20228;-55
2022/08/29 11:08:12;;;;;;;4.57;3.17;;;28.80;83.20;;;;;;5051812;28;20205;-56
2022/08/29 11:10:43;;;;;;;4.13;3.13;;;28.90;83.30;;;;;;5051637;28;20209;-55
2022/08/29 11:13:17;;;;;;;5.45;3.30;;;29.10;83.20;;;;;;5051458;28;20737;-55
2022/08/29 11:15:47;;;;;;;6.70;3.28;;;29.40;82.40;;;;;;5051897;28;20482;-55
2022/08/29 11:18:23;;;;;;;6.57;3.20;;;29.60;80.70;;;;;;5052063;28;20587;-55
2022/08/29 11:20:56;;;;;;;6.72;3.10;;;29.60;80.00;;;;;;5051651;28;20267;-56
2022/08/29 11:23:34;;;;;;;4.85;2.92;;;29.50;79.90;;;;;;5052442;28;20230;-55
2022/08/29 11:26:07;;;;;;;5.05;3.00;;;29.60;78.30;;;;;;5052132;28;20201;-55
2022/08/29 11:28:41;;;;;;;4.68;3.00;;;29.50;77.60;;;;;;5052051;28;20616;-55
2022/08/29 11:31:15;;;;;;;7.13;3.08;;;29.40;77.90;;;;;;5051660;28;20266;-55
2022/08/29 11:33:51;;;;;;;5.40;3.25;;;29.40;77.60;;;;;;5052204;28;20190;-55
2022/08/29 11:36:34;;;;;;;4.35;2.80;;;29.50;78.00;;;;;;5051896;28;20232;-55
2022/08/29 11:39:28;;;;;;;4.05;2.90;;;29.50;77.70;;;;;;5051858;28;20209;-56
2022/08/29 11:41:58;;;;;;;6.85;3.25;;;29.70;76.80;;;;;;5051260;28;20228;-55
2022/08/29 11:44:29;;;;;;;3.38;2.55;;;29.80;76.10;;;;;;5051713;28;20205;-56
2022/08/29 11:46:58;;;;;;;3.90;2.83;;;30.00;75.60;;;;;;5051837;28;20209;-55
2022/08/29 11:49:39;;;;;;;5.60;3.13;;;30.10;74.40;;;;;;5051597;28;20206;-55
2022/08/29 11:52:24;;;;;;;7.38;3.22;;;30.40;74.50;;;;;;5051359;28;20226;-55
2022/08/29 11:55:22;;;;;;;6.22;2.72;;;30.50;72.90;;;;;;5051571;28;20320;-56
2022/08/29 11:57:52;;;;;;;3.50;2.90;;;30.60;73.00;;;;;;5051560;28;20606;-55
2022/08/29 12:00:32;;;;;;;4.63;3.30;;;30.70;71.90;;;;;;5052113;28;20606;-55
2022/08/29 12:02:58;;;;;;;3.83;2.80;;;30.80;71.80;;;;;;5051401;28;20648;-54
2022/08/29 12:05:58;;;;;;;4.05;3.08;;;31.10;71.40;;;;;;5051644;28;20198;-55
2022/08/29 12:08:37;;;;;;;4.20;3.00;;;31.40;71.00;;;;;;5051489;28;20267;-55
2022/08/29 12:11:06;;;;;;;4.20;2.95;;;31.60;70.70;;;;;;5051175;28;20208;-55
2022/08/29 12:14:00;;;;;;;7.07;3.33;;;31.60;72.40;;;;;;5050937;28;20329;-55
2022/08/29 12:16:46;;;;;;;4.07;3.05;;;31.70;71.70;;;;;;5045858;28;20965;-55
2022/08/29 12:19:46;;;;;;;5.53;2.88;;;31.70;70.90;;;;;;5055481;28;20228;-55
2022/08/29 12:22:49;;;;;;;4.43;2.90;;;31.70;71.00;;;;;;5054776;28;20335;-55
2022/08/29 12:25:33;;;;;;;4.57;2.88;;;31.70;70.80;;;;;;5050145;28;20554;-55
2022/08/29 12:28:06;;;;;;;4.60;3.17;;;31.80;70.60;;;;;;5055497;28;20213;-55
2022/08/29 12:30:38;;;;;;;4.05;3.13;;;31.90;70.80;;;;;;5054942;28;20690;-55
2022/08/29 12:33:13;;;;;;;3.80;3.28;;;31.90;69.70;;;;;;5054890;28;20253;-55
2022/08/29 12:36:07;;;;;;;7.60;3.50;;;31.70;69.30;;;;;;5054547;28;20221;-55
2022/08/29 12:38:43;;;;;;;5.97;3.53;;;31.30;71.20;;;;;;5054524;28;20580;-55
2022/08/29 12:41:45;;;;;;;3.45;3.00;;;31.00;71.30;;;;;;5054457;28;20751;-55
2022/08/29 12:44:16;;;;;;;6.20;3.40;;;30.70;72.30;;;;;;5050610;28;20205;-55
2022/08/29 12:46:44;;;;;;;5.85;3.17;;;30.40;72.80;;;;;;5054806;28;20292;-55
2022/08/29 12:49:20;;;;;;;9.27;3.55;;;30.20;73.10;;;;;;5054593;28;20215;-55
2022/08/29 12:51:49;;;;;;;5.72;3.67;;;29.90;73.40;;;;;;5053859;28;20240;-55
2022/08/29 12:54:30;;;;;;;4.80;3.25;;;29.80;74.60;;;;;;5054113;28;20681;-55
2022/08/29 12:56:56;;;;;;;4.35;3.30;;;29.80;73.70;;;;;;5054176;28;20782;-56
2022/08/29 12:59:25;;;;;;;5.22;3.53;;;29.80;73.80;;;;;;5054377;28;20233;-55
2022/08/29 13:01:54;;;;;;;6.50;3.10;;;30.00;73.60;;;;;;5053889;28;20230;-56
2022/08/29 13:04:23;;;;;;;4.63;3.10;;;30.30;72.70;;;;;;5054203;28;20267;-55
2022/08/29 13:06:52;;;;;;;5.05;3.13;;;30.50;72.30;;;;;;5054143;28;20259;-55
2022/08/29 13:09:25;;;;;;;4.32;3.25;;;30.70;71.90;;;;;;5053929;28;20288;-55